createdAt,value
2018-12-10T00:00:52.654Z,974.81
2018-12-10T00:01:52.640Z,974.81
2018-12-10T00:02:52.627Z,974.82
2018-12-10T00:03:52.613Z,974.82
2018-12-10T00:04:52.602Z,974.86
2018-12-10T00:05:52.589Z,974.84
2018-12-10T00:06:52.574Z,974.88
2018-12-10T00:07:52.560Z,974.84
2018-12-10T00:08:52.546Z,974.85
2018-12-10T00:09:52.532Z,974.87
2018-12-10T00:10:52.519Z,974.87
2018-12-10T00:11:52.505Z,974.88
2018-12-10T00:12:52.493Z,974.88
2018-12-10T00:13:52.479Z,974.89
2018-12-10T00:14:52.465Z,974.92
2018-12-10T00:15:52.451Z,974.93
2018-12-10T00:16:52.436Z,974.95
2018-12-10T00:17:52.424Z,974.93
2018-12-10T00:18:52.414Z,974.93
2018-12-10T00:19:52.398Z,974.93
2018-12-10T00:20:52.383Z,974.95
2018-12-10T00:21:52.372Z,974.91
2018-12-10T00:22:52.358Z,974.91
2018-12-10T00:23:52.344Z,974.95
2018-12-10T00:24:52.331Z,975.00
2018-12-10T00:25:52.316Z,975.00
2018-12-10T00:26:52.302Z,975.02
2018-12-10T00:27:52.291Z,975.05
2018-12-10T00:28:52.276Z,975.11
2018-12-10T00:29:52.264Z,975.17
2018-12-10T00:30:52.249Z,975.19
2018-12-10T00:31:52.237Z,975.18
2018-12-10T00:32:52.226Z,975.26
2018-12-10T00:33:52.210Z,975.26
2018-12-10T00:34:52.197Z,975.25
2018-12-10T00:35:52.187Z,975.24
2018-12-10T00:36:52.171Z,975.23
2018-12-10T00:37:52.159Z,975.25
2018-12-10T00:38:52.145Z,975.26
2018-12-10T00:39:52.129Z,975.25
2018-12-10T00:40:52.116Z,975.29
2018-12-10T00:41:52.103Z,975.27
2018-12-10T00:42:52.089Z,975.27
2018-12-10T00:43:52.078Z,975.30
2018-12-10T00:44:52.064Z,975.18
2018-12-10T00:45:52.051Z,975.29
2018-12-10T00:46:52.041Z,975.25
2018-12-10T00:47:52.025Z,975.28
2018-12-10T00:48:52.012Z,975.32
2018-12-10T00:49:52.000Z,975.38
2018-12-10T00:50:51.986Z,975.42
2018-12-10T00:51:51.970Z,975.40
2018-12-10T00:52:51.958Z,975.36
2018-12-10T00:53:51.946Z,975.37
2018-12-10T00:54:51.935Z,975.44
2018-12-10T00:55:51.921Z,975.49
2018-12-10T00:56:51.909Z,975.53
2018-12-10T00:57:51.890Z,975.54
2018-12-10T00:58:51.879Z,975.57
2018-12-10T00:59:51.865Z,975.58
2018-12-10T01:00:51.851Z,975.64
2018-12-10T01:01:51.840Z,975.63
2018-12-10T01:02:51.827Z,975.64
2018-12-10T01:03:51.821Z,975.68
2018-12-10T01:04:51.800Z,975.76
2018-12-10T01:05:51.786Z,975.76
2018-12-10T01:06:51.774Z,975.81
2018-12-10T01:07:51.759Z,975.90
2018-12-10T01:08:51.745Z,975.91
2018-12-10T01:09:51.733Z,975.96
2018-12-10T01:10:51.738Z,975.94
2018-12-10T01:11:51.707Z,975.91
2018-12-10T01:12:51.694Z,975.92
2018-12-10T01:13:51.679Z,975.98
2018-12-10T01:14:51.666Z,976.03
2018-12-10T01:15:51.654Z,976.05
2018-12-10T01:16:51.638Z,975.99
2018-12-10T01:17:51.628Z,976.08
2018-12-10T01:18:51.613Z,976.04
2018-12-10T01:19:51.599Z,976.11
2018-12-10T01:20:51.586Z,976.13
2018-12-10T01:21:51.573Z,976.04
2018-12-10T01:22:51.561Z,976.03
2018-12-10T01:23:51.545Z,976.10
2018-12-10T01:24:51.532Z,976.15
2018-12-10T01:25:51.520Z,976.12
2018-12-10T01:26:51.510Z,976.15
2018-12-10T01:27:51.495Z,976.23
2018-12-10T01:28:51.479Z,976.21
2018-12-10T01:29:51.466Z,976.30
2018-12-10T01:30:51.452Z,976.27
2018-12-10T01:31:51.441Z,976.28
2018-12-10T01:32:51.427Z,976.32
2018-12-10T01:33:51.411Z,976.39
2018-12-10T01:34:51.398Z,976.48
2018-12-10T01:35:51.384Z,976.55
2018-12-10T01:36:51.374Z,976.47
2018-12-10T01:37:51.359Z,976.46
2018-12-10T01:38:51.344Z,976.46
2018-12-10T01:39:51.330Z,976.47
2018-12-10T01:40:51.316Z,976.46
2018-12-10T01:41:51.406Z,976.42
2018-12-10T01:42:51.291Z,976.41
2018-12-10T01:43:51.276Z,976.44
2018-12-10T01:44:51.262Z,976.39
2018-12-10T01:45:51.249Z,976.44
2018-12-10T01:46:51.239Z,976.45
2018-12-10T01:47:51.224Z,976.43
2018-12-10T01:48:51.209Z,976.47
2018-12-10T01:49:51.197Z,976.52
2018-12-10T01:50:51.184Z,976.54
2018-12-10T01:51:51.167Z,976.58
2018-12-10T01:52:51.158Z,976.56
2018-12-10T01:53:51.141Z,976.54
2018-12-10T01:54:51.128Z,976.50
2018-12-10T01:55:51.116Z,976.56
2018-12-10T01:56:51.103Z,976.60
2018-12-10T01:57:51.088Z,976.60
2018-12-10T01:58:51.074Z,976.64
2018-12-10T01:59:51.060Z,976.69
2018-12-10T02:00:51.051Z,976.64
2018-12-10T02:01:51.033Z,976.65
2018-12-10T02:02:51.020Z,976.71
2018-12-10T02:03:51.006Z,976.68
2018-12-10T02:04:50.992Z,976.70
2018-12-10T02:05:50.979Z,976.72
2018-12-10T02:06:50.968Z,976.71
2018-12-10T02:07:50.955Z,976.70
2018-12-10T02:08:50.939Z,976.66
2018-12-10T02:09:50.926Z,976.66
2018-12-10T02:10:50.912Z,976.69
2018-12-10T02:11:50.899Z,976.61
2018-12-10T02:12:50.884Z,976.60
2018-12-10T02:13:50.873Z,976.62
2018-12-10T02:14:50.858Z,976.64
2018-12-10T02:15:50.846Z,976.70
2018-12-10T02:16:50.831Z,976.69
2018-12-10T02:17:50.819Z,976.66
2018-12-10T02:18:50.804Z,976.69
2018-12-10T02:19:50.791Z,976.69
2018-12-10T02:20:50.778Z,976.69
2018-12-10T02:21:50.764Z,976.68
2018-12-10T02:22:50.752Z,976.67
2018-12-10T02:23:50.737Z,976.68
2018-12-10T02:24:50.722Z,976.69
2018-12-10T02:25:50.712Z,976.71
2018-12-10T02:26:50.699Z,976.69
2018-12-10T02:27:50.682Z,976.72
2018-12-10T02:28:50.670Z,976.71
2018-12-10T02:29:50.660Z,976.71
2018-12-10T02:30:50.656Z,976.74
2018-12-10T02:31:50.631Z,976.74
2018-12-10T02:32:50.617Z,976.74
2018-12-10T02:33:50.602Z,976.72
2018-12-10T02:34:50.589Z,976.69
2018-12-10T02:35:50.577Z,976.73
2018-12-10T02:36:50.564Z,976.72
2018-12-10T02:37:50.549Z,976.74
2018-12-10T02:38:50.537Z,976.70
2018-12-10T02:39:50.523Z,976.68
2018-12-10T02:40:50.513Z,976.63
2018-12-10T02:41:50.495Z,976.71
2018-12-10T02:42:50.496Z,976.69
2018-12-10T02:43:50.467Z,976.72
2018-12-10T02:44:50.611Z,976.72
2018-12-10T02:45:50.442Z,976.72
2018-12-10T02:46:50.428Z,976.74
2018-12-10T02:47:50.416Z,976.71
2018-12-10T02:48:50.402Z,976.73
2018-12-10T02:49:50.391Z,976.72
2018-12-10T02:50:50.378Z,976.71
2018-12-10T02:51:50.360Z,976.71
2018-12-10T02:52:50.349Z,976.76
2018-12-10T02:53:50.336Z,976.74
2018-12-10T02:54:50.321Z,976.76
2018-12-10T02:55:50.306Z,976.76
2018-12-10T02:56:50.293Z,976.72
2018-12-10T02:57:50.290Z,976.71
2018-12-10T02:58:50.270Z,976.72
2018-12-10T02:59:50.254Z,976.74
2018-12-10T03:00:50.242Z,976.73
2018-12-10T03:01:50.228Z,976.71
2018-12-10T03:02:50.212Z,976.67
2018-12-10T03:03:50.201Z,976.68
2018-12-10T03:04:50.186Z,976.70
2018-12-10T03:05:50.175Z,976.72
2018-12-10T03:06:50.160Z,976.73
2018-12-10T03:07:50.146Z,976.78
2018-12-10T03:08:50.136Z,976.79
2018-12-10T03:09:50.124Z,976.84
2018-12-10T03:10:50.106Z,976.86
2018-12-10T03:11:50.092Z,976.86
2018-12-10T03:12:50.082Z,976.86
2018-12-10T03:13:50.069Z,976.89
2018-12-10T03:14:50.050Z,976.90
2018-12-10T03:15:50.037Z,976.92
2018-12-10T03:16:50.024Z,976.92
2018-12-10T03:17:50.010Z,976.90
2018-12-10T03:18:49.997Z,976.93
2018-12-10T03:19:49.983Z,976.90
2018-12-10T03:20:49.970Z,976.90
2018-12-10T03:21:49.956Z,976.95
2018-12-10T03:22:49.941Z,976.90
2018-12-10T03:23:49.931Z,976.90
2018-12-10T03:24:49.930Z,976.91
2018-12-10T03:25:49.904Z,976.95
2018-12-10T03:26:49.892Z,976.94
2018-12-10T03:27:49.876Z,976.91
2018-12-10T03:28:49.861Z,976.91
2018-12-10T03:29:49.849Z,976.89
2018-12-10T03:30:49.838Z,976.92
2018-12-10T03:31:49.845Z,976.88
2018-12-10T03:32:49.811Z,976.89
2018-12-10T03:33:49.798Z,976.91
2018-12-10T03:34:49.782Z,976.89
2018-12-10T03:35:49.767Z,976.91
2018-12-10T03:36:49.757Z,976.96
2018-12-10T03:37:49.743Z,976.98
2018-12-10T03:38:49.726Z,976.97
2018-12-10T03:39:49.712Z,976.98
2018-12-10T03:40:49.714Z,977.02
2018-12-10T03:41:49.688Z,977.01
2018-12-10T03:42:49.673Z,976.99
2018-12-10T03:43:49.660Z,977.05
2018-12-10T03:44:49.669Z,977.02
2018-12-10T03:45:49.635Z,977.03
2018-12-10T03:46:49.621Z,976.99
2018-12-10T03:47:49.606Z,977.04
2018-12-10T03:48:49.590Z,977.05
2018-12-10T03:49:49.580Z,976.99
2018-12-10T03:50:49.569Z,977.06
2018-12-10T03:51:49.551Z,977.07
2018-12-10T03:52:49.536Z,977.05
2018-12-10T03:53:49.526Z,977.06
2018-12-10T03:54:49.510Z,977.06
2018-12-10T03:55:49.497Z,976.99
2018-12-10T03:56:49.483Z,976.98
2018-12-10T03:57:49.628Z,976.99
2018-12-10T03:58:49.458Z,976.94
2018-12-10T03:59:49.440Z,976.91
2018-12-10T04:00:49.430Z,976.90
2018-12-10T04:01:49.417Z,976.83
2018-12-10T04:02:49.402Z,976.82
2018-12-10T04:03:49.389Z,976.82
2018-12-10T04:04:49.374Z,976.83
2018-12-10T04:05:49.360Z,976.83
2018-12-10T04:06:49.347Z,976.86
2018-12-10T04:07:49.337Z,976.80
2018-12-10T04:08:49.321Z,976.82
2018-12-10T04:09:49.308Z,976.87
2018-12-10T04:10:49.295Z,976.85
2018-12-10T04:11:49.283Z,976.84
2018-12-10T04:12:49.267Z,976.83
2018-12-10T04:13:49.254Z,976.82
2018-12-10T04:14:49.242Z,976.84
2018-12-10T04:15:49.226Z,976.85
2018-12-10T04:16:49.216Z,976.88
2018-12-10T04:17:49.199Z,976.91
2018-12-10T04:18:49.189Z,976.90
2018-12-10T04:19:49.173Z,976.87
2018-12-10T04:20:49.161Z,976.89
2018-12-10T04:21:49.146Z,976.89
2018-12-10T04:22:49.146Z,976.88
2018-12-10T04:23:49.119Z,976.89
2018-12-10T04:24:49.105Z,976.87
2018-12-10T04:25:49.095Z,976.87
2018-12-10T04:26:49.078Z,976.84
2018-12-10T04:27:49.065Z,976.84
2018-12-10T04:28:49.052Z,976.83
2018-12-10T04:29:49.039Z,976.84
2018-12-10T04:30:49.083Z,976.80
2018-12-10T04:31:49.010Z,976.84
2018-12-10T04:32:48.999Z,976.81
2018-12-10T04:33:48.982Z,976.78
2018-12-10T04:34:48.971Z,976.72
2018-12-10T04:35:48.957Z,976.74
2018-12-10T04:36:48.942Z,976.70
2018-12-10T04:37:48.936Z,976.68
2018-12-10T04:38:48.922Z,976.65
2018-12-10T04:39:48.906Z,976.63
2018-12-10T04:40:48.897Z,976.61
2018-12-10T04:41:48.876Z,976.63
2018-12-10T04:42:48.861Z,976.70
2018-12-10T04:43:48.849Z,976.72
2018-12-10T04:44:48.944Z,976.71
2018-12-10T04:45:48.822Z,976.73
2018-12-10T04:46:48.807Z,976.75
2018-12-10T04:47:48.794Z,976.81
2018-12-10T04:48:48.781Z,976.80
2018-12-10T04:49:48.768Z,976.86
2018-12-10T04:50:48.754Z,976.88
2018-12-10T04:51:48.739Z,976.89
2018-12-10T04:52:48.726Z,976.89
2018-12-10T04:53:48.714Z,976.98
2018-12-10T04:54:48.703Z,976.95
2018-12-10T04:55:48.685Z,976.92
2018-12-10T04:56:48.673Z,976.95
2018-12-10T04:57:48.660Z,976.99
2018-12-10T04:58:48.645Z,977.02
2018-12-10T04:59:52.693Z,977.01
2018-12-10T05:00:48.619Z,977.01
2018-12-10T05:01:48.603Z,977.07
2018-12-10T05:02:48.601Z,977.12
2018-12-10T05:03:48.577Z,977.07
2018-12-10T05:04:48.563Z,977.09
2018-12-10T05:05:48.549Z,977.05
2018-12-10T05:06:48.537Z,977.05
2018-12-10T05:07:48.522Z,977.06
2018-12-10T05:08:48.508Z,977.07
2018-12-10T05:09:48.497Z,977.04
2018-12-10T05:10:48.483Z,977.06
2018-12-10T05:11:48.471Z,977.09
2018-12-10T05:12:48.456Z,977.10
2018-12-10T05:13:48.442Z,977.15
2018-12-10T05:14:48.428Z,977.13
2018-12-10T05:15:48.416Z,977.22
2018-12-10T05:16:48.403Z,977.14
2018-12-10T05:17:48.388Z,977.17
2018-12-10T05:18:48.376Z,977.16
2018-12-10T05:19:48.361Z,977.18
2018-12-10T05:20:48.347Z,977.18
2018-12-10T05:21:48.335Z,977.20
2018-12-10T05:22:48.320Z,977.23
2018-12-10T05:23:48.310Z,977.20
2018-12-10T05:24:48.294Z,977.24
2018-12-10T05:25:48.279Z,977.25
2018-12-10T05:26:48.267Z,977.25
2018-12-10T05:27:48.253Z,977.21
2018-12-10T05:28:48.238Z,977.21
2018-12-10T05:29:48.229Z,977.24
2018-12-10T05:30:48.212Z,977.21
2018-12-10T05:31:48.198Z,977.21
2018-12-10T05:32:48.184Z,977.15
2018-12-10T05:33:48.172Z,977.15
2018-12-10T05:34:48.157Z,977.20
2018-12-10T05:35:48.144Z,977.19
2018-12-10T05:36:48.129Z,977.18
2018-12-10T05:37:48.117Z,977.19
2018-12-10T05:38:48.105Z,977.19
2018-12-10T05:39:48.089Z,977.23
2018-12-10T05:40:48.076Z,977.23
2018-12-10T05:41:48.065Z,977.19
2018-12-10T05:42:48.051Z,977.24
2018-12-10T05:43:48.036Z,977.22
2018-12-10T05:44:48.021Z,977.17
2018-12-10T05:45:48.008Z,977.16
2018-12-10T05:46:48.002Z,977.25
2018-12-10T05:47:47.979Z,977.21
2018-12-10T05:48:47.968Z,977.25
2018-12-10T05:49:47.956Z,977.27
2018-12-10T05:50:47.942Z,977.28
2018-12-10T05:51:47.926Z,977.33
2018-12-10T05:52:47.921Z,977.37
2018-12-10T05:53:47.900Z,977.33
2018-12-10T05:54:47.886Z,977.30
2018-12-10T05:55:47.873Z,977.31
2018-12-10T05:56:47.858Z,977.29
2018-12-10T05:57:47.844Z,977.24
2018-12-10T05:58:47.831Z,977.27
2018-12-10T05:59:47.816Z,977.28
2018-12-10T06:00:47.876Z,977.31
2018-12-10T06:01:47.791Z,977.34
2018-12-10T06:02:47.775Z,977.33
2018-12-10T06:03:47.760Z,977.34
2018-12-10T06:04:47.751Z,977.31
2018-12-10T06:05:47.735Z,977.37
2018-12-10T06:06:47.720Z,977.36
2018-12-10T06:07:47.705Z,977.38
2018-12-10T06:08:47.693Z,977.40
2018-12-10T06:09:47.680Z,977.42
2018-12-10T06:10:47.669Z,977.43
2018-12-10T06:11:47.651Z,977.49
2018-12-10T06:12:47.641Z,977.47
2018-12-10T06:13:47.626Z,977.49
2018-12-10T06:14:47.612Z,977.48
2018-12-10T06:15:47.599Z,977.46
2018-12-10T06:16:47.585Z,977.47
2018-12-10T06:17:47.570Z,977.51
2018-12-10T06:18:47.672Z,977.55
2018-12-10T06:19:47.543Z,977.54
2018-12-10T06:20:47.528Z,977.52
2018-12-10T06:21:47.515Z,977.55
2018-12-10T06:22:47.501Z,977.58
2018-12-10T06:23:47.486Z,977.57
2018-12-10T06:24:47.472Z,977.55
2018-12-10T06:25:47.458Z,977.56
2018-12-10T06:26:47.446Z,977.62
2018-12-10T06:27:47.431Z,977.60
2018-12-10T06:28:47.420Z,977.64
2018-12-10T06:29:47.405Z,977.68
2018-12-10T06:30:47.392Z,977.65
2018-12-10T06:31:47.377Z,977.63
2018-12-10T06:32:47.362Z,977.65
2018-12-10T06:33:47.350Z,977.65
2018-12-10T06:34:47.337Z,977.60
2018-12-10T06:35:47.323Z,977.64
2018-12-10T06:36:47.308Z,977.71
2018-12-10T06:37:47.295Z,977.71
2018-12-10T06:38:47.280Z,977.67
2018-12-10T06:39:47.267Z,977.68
2018-12-10T06:40:47.253Z,977.64
2018-12-10T06:41:47.238Z,977.67
2018-12-10T06:42:47.226Z,977.72
2018-12-10T06:43:47.211Z,977.73
2018-12-10T06:44:47.196Z,977.78
2018-12-10T06:45:47.184Z,977.80
2018-12-10T06:46:47.170Z,977.84
2018-12-10T06:47:47.156Z,977.85
2018-12-10T06:48:47.145Z,977.82
2018-12-10T06:49:47.127Z,977.78
2018-12-10T06:50:47.113Z,977.80
2018-12-10T06:51:47.101Z,977.84
2018-12-10T06:52:47.088Z,977.78
2018-12-10T06:53:47.075Z,977.80
2018-12-10T06:54:47.060Z,977.82
2018-12-10T06:55:47.046Z,977.82
2018-12-10T06:56:47.032Z,977.86
2018-12-10T06:57:47.018Z,977.86
2018-12-10T06:58:47.004Z,977.89
2018-12-10T06:59:46.988Z,977.89
2018-12-10T07:00:46.974Z,977.92
2018-12-10T07:01:46.959Z,977.87
2018-12-10T07:02:46.946Z,977.86
2018-12-10T07:03:46.932Z,977.91
2018-12-10T07:04:46.920Z,977.92
2018-12-10T07:05:46.909Z,977.96
2018-12-10T07:06:46.890Z,977.98
2018-12-10T07:07:46.875Z,978.00
2018-12-10T07:08:46.863Z,977.99
2018-12-10T07:09:46.852Z,977.98
2018-12-10T07:10:46.836Z,978.01
2018-12-10T07:11:46.821Z,977.92
2018-12-10T07:12:46.809Z,978.02
2018-12-10T07:13:46.793Z,978.02
2018-12-10T07:14:46.784Z,978.06
2018-12-10T07:15:46.764Z,978.05
2018-12-10T07:16:46.754Z,978.11
2018-12-10T07:17:46.740Z,978.10
2018-12-10T07:18:46.727Z,978.08
2018-12-10T07:19:46.711Z,978.08
2018-12-10T07:20:46.697Z,978.11
2018-12-10T07:21:46.682Z,978.09
2018-12-10T07:22:46.668Z,978.11
2018-12-10T07:23:46.655Z,978.18
2018-12-10T07:24:46.640Z,978.16
2018-12-10T07:25:46.628Z,978.10
2018-12-10T07:26:46.613Z,978.12
2018-12-10T07:27:46.597Z,978.17
2018-12-10T07:28:46.585Z,978.22
2018-12-10T07:29:46.571Z,978.23
2018-12-10T07:30:46.557Z,978.28
2018-12-10T07:31:46.541Z,978.30
2018-12-10T07:32:46.527Z,978.31
2018-12-10T07:33:46.513Z,978.27
2018-12-10T07:34:46.499Z,978.32
2018-12-10T07:35:46.485Z,978.32
2018-12-10T07:36:46.472Z,978.37
2018-12-10T07:37:46.459Z,978.37
2018-12-10T07:38:46.443Z,978.34
2018-12-10T07:39:46.427Z,978.44
2018-12-10T07:40:46.413Z,978.44
2018-12-10T07:41:46.401Z,978.45
2018-12-10T07:42:46.387Z,978.47
2018-12-10T07:43:46.371Z,978.46
2018-12-10T07:44:46.358Z,978.43
2018-12-10T07:45:46.344Z,978.43
2018-12-10T07:46:46.330Z,978.45
2018-12-10T07:47:46.320Z,978.43
2018-12-10T07:48:46.302Z,978.35
2018-12-10T07:49:46.288Z,978.38
2018-12-10T07:50:46.274Z,978.37
2018-12-10T07:51:46.259Z,978.39
2018-12-10T07:52:46.247Z,978.41
2018-12-10T07:53:46.232Z,978.40
2018-12-10T07:54:46.220Z,978.37
2018-12-10T07:55:46.203Z,978.40
2018-12-10T07:56:46.190Z,978.37
2018-12-10T07:57:46.176Z,978.42
2018-12-10T07:58:46.162Z,978.43
2018-12-10T07:59:46.153Z,978.37
2018-12-10T08:00:46.133Z,978.42
2018-12-10T08:01:46.120Z,978.40
2018-12-10T08:02:46.106Z,978.42
2018-12-10T08:03:46.091Z,978.44
2018-12-10T08:04:46.077Z,978.41
2018-12-10T08:05:46.064Z,978.47
2018-12-10T08:06:46.051Z,978.49
2018-12-10T08:07:46.035Z,978.45
2018-12-10T08:08:46.022Z,978.48
2018-12-10T08:09:46.008Z,978.49
2018-12-10T08:10:45.996Z,978.53
2018-12-10T08:11:45.981Z,978.56
2018-12-10T08:12:45.967Z,978.55
2018-12-10T08:13:45.954Z,978.53
2018-12-10T08:14:46.022Z,978.48
2018-12-10T08:15:45.925Z,978.53
2018-12-10T08:16:45.912Z,978.55
2018-12-10T08:17:45.895Z,978.53
2018-12-10T08:18:45.885Z,978.55
2018-12-10T08:19:45.867Z,978.57
2018-12-10T08:20:45.854Z,978.56
2018-12-10T08:21:45.843Z,978.61
2018-12-10T08:22:45.845Z,978.63
2018-12-10T08:23:45.813Z,978.62
2018-12-10T08:24:45.800Z,978.64
2018-12-10T08:25:45.786Z,978.64
2018-12-10T08:26:45.773Z,978.66
2018-12-10T08:27:45.758Z,978.69
2018-12-10T08:28:45.745Z,978.65
2018-12-10T08:29:45.732Z,978.69
2018-12-10T08:30:45.717Z,978.70
2018-12-10T08:31:45.704Z,978.70
2018-12-10T08:32:45.689Z,978.70
2018-12-10T08:33:45.675Z,978.70
2018-12-10T08:34:45.662Z,978.78
2018-12-10T08:35:45.648Z,978.76
2018-12-10T08:36:45.634Z,978.75
2018-12-10T08:37:45.620Z,978.77
2018-12-10T08:38:45.607Z,978.81
2018-12-10T08:39:45.592Z,978.79
2018-12-10T08:40:45.578Z,978.77
2018-12-10T08:41:45.565Z,978.84
2018-12-10T08:42:45.552Z,978.82
2018-12-10T08:43:45.538Z,978.84
2018-12-10T08:44:45.525Z,978.81
2018-12-10T08:45:45.509Z,978.82
2018-12-10T08:46:45.498Z,978.88
2018-12-10T08:47:45.482Z,978.93
2018-12-10T08:48:45.468Z,978.97
2018-12-10T08:49:45.455Z,978.94
2018-12-10T08:50:45.443Z,978.97
2018-12-10T08:51:45.427Z,978.99
2018-12-10T08:52:45.414Z,978.99
2018-12-10T08:53:45.400Z,979.01
2018-12-10T08:54:45.390Z,978.98
2018-12-10T08:55:45.372Z,979.02
2018-12-10T08:56:45.358Z,979.02
2018-12-10T08:57:45.346Z,979.06
2018-12-10T08:58:45.334Z,979.04
2018-12-10T08:59:45.317Z,979.07
2018-12-10T09:00:45.304Z,979.14
2018-12-10T09:01:45.293Z,979.13
2018-12-10T09:02:45.278Z,979.15
2018-12-10T09:03:45.264Z,979.16
2018-12-10T09:04:45.250Z,979.15
2018-12-10T09:05:45.237Z,979.14
2018-12-10T09:06:45.225Z,979.14
2018-12-10T09:07:45.211Z,979.17
2018-12-10T09:08:45.198Z,979.21
2018-12-10T09:09:45.183Z,979.19
2018-12-10T09:10:45.174Z,979.21
2018-12-10T09:11:45.158Z,979.22
2018-12-10T09:12:47.144Z,979.22
2018-12-10T09:13:45.129Z,979.21
2018-12-10T09:14:45.116Z,979.28
2018-12-10T09:15:45.104Z,979.26
2018-12-10T09:16:45.091Z,979.34
2018-12-10T09:17:45.079Z,979.30
2018-12-10T09:18:45.063Z,979.35
2018-12-10T09:19:45.049Z,979.39
2018-12-10T09:20:45.036Z,979.38
2018-12-10T09:21:45.023Z,979.43
2018-12-10T09:22:45.010Z,979.42
2018-12-10T09:23:44.995Z,979.44
2018-12-10T09:24:44.981Z,979.50
2018-12-10T09:25:44.970Z,979.44
2018-12-10T09:26:44.958Z,979.42
2018-12-10T09:27:44.942Z,979.42
2018-12-10T09:28:44.929Z,979.44
2018-12-10T09:29:44.961Z,979.43
2018-12-10T09:30:44.905Z,979.44
2018-12-10T09:31:44.888Z,979.43
2018-12-10T09:32:44.876Z,979.46
2018-12-10T09:33:44.864Z,979.47
2018-12-10T09:34:44.853Z,979.51
2018-12-10T09:35:44.837Z,979.52
2018-12-10T09:36:44.823Z,979.61
2018-12-10T09:37:44.811Z,979.59
2018-12-10T09:38:44.799Z,979.62
2018-12-10T09:39:44.785Z,979.61
2018-12-10T09:40:44.769Z,979.68
2018-12-10T09:41:44.757Z,979.63
2018-12-10T09:42:44.743Z,979.67
2018-12-10T09:43:44.731Z,979.69
2018-12-10T09:44:44.718Z,979.69
2018-12-10T09:45:44.706Z,979.65
2018-12-10T09:46:44.701Z,979.62
2018-12-10T09:47:44.677Z,979.61
2018-12-10T09:48:44.667Z,979.62
2018-12-10T09:49:44.650Z,979.66
2018-12-10T09:50:44.639Z,979.63
2018-12-10T09:51:44.629Z,979.64
2018-12-10T09:52:44.615Z,979.67
2018-12-10T09:53:44.598Z,979.61
2018-12-10T09:54:44.587Z,979.62
2018-12-10T09:55:44.575Z,979.64
2018-12-10T09:56:44.559Z,979.64
2018-12-10T09:57:44.546Z,979.68
2018-12-10T09:58:44.533Z,979.71
2018-12-10T09:59:44.521Z,979.70
2018-12-10T10:00:44.507Z,979.69
2018-12-10T10:01:44.495Z,979.70
2018-12-10T10:02:44.483Z,979.72
2018-12-10T10:03:44.467Z,979.68
2018-12-10T10:04:44.454Z,979.64
2018-12-10T10:05:44.534Z,979.70
2018-12-10T10:06:44.430Z,979.70
2018-12-10T10:07:44.415Z,979.71
2018-12-10T10:08:44.401Z,979.67
2018-12-10T10:09:44.389Z,979.68
2018-12-10T10:10:44.376Z,979.65
2018-12-10T10:11:44.362Z,979.70
2018-12-10T10:12:44.359Z,979.73
2018-12-10T10:13:44.340Z,979.71
2018-12-10T10:14:44.326Z,979.69
2018-12-10T10:15:44.312Z,979.71
2018-12-10T10:16:44.301Z,979.70
2018-12-10T10:17:44.290Z,979.73
2018-12-10T10:18:44.274Z,979.78
2018-12-10T10:19:44.260Z,979.72
2018-12-10T10:20:44.246Z,979.73
2018-12-10T10:21:44.235Z,979.72
2018-12-10T10:22:44.222Z,979.73
2018-12-10T10:23:44.208Z,979.74
2018-12-10T10:24:44.197Z,979.78
2018-12-10T10:25:44.184Z,979.77
2018-12-10T10:26:44.175Z,979.76
2018-12-10T10:27:44.156Z,979.79
2018-12-10T10:28:44.145Z,979.75
2018-12-10T10:29:44.132Z,979.80
2018-12-10T10:30:44.221Z,979.78
2018-12-10T10:31:44.105Z,979.79
2018-12-10T10:32:44.092Z,979.78
2018-12-10T10:33:44.082Z,979.82
2018-12-10T10:34:44.068Z,979.82
2018-12-10T10:35:44.054Z,979.79
2018-12-10T10:36:44.693Z,979.82
2018-12-10T10:37:44.029Z,979.84
2018-12-10T10:38:44.018Z,979.81
2018-12-10T10:39:44.003Z,979.73
2018-12-10T10:40:43.990Z,979.76
2018-12-10T10:41:43.978Z,979.71
2018-12-10T10:42:43.968Z,979.65
2018-12-10T10:43:43.952Z,979.68
2018-12-10T10:44:43.939Z,979.58
2018-12-10T10:45:43.929Z,979.59
2018-12-10T10:46:43.914Z,979.53
2018-12-10T10:47:43.901Z,979.54
2018-12-10T10:48:43.888Z,979.60
2018-12-10T10:49:43.875Z,979.59
2018-12-10T10:50:43.863Z,979.54
2018-12-10T10:51:44.006Z,979.52
2018-12-10T10:52:43.839Z,979.55
2018-12-10T10:53:43.824Z,979.55
2018-12-10T10:54:43.814Z,979.59
2018-12-10T10:55:43.798Z,979.56
2018-12-10T10:56:43.785Z,979.54
2018-12-10T10:57:43.775Z,979.55
2018-12-10T10:58:43.762Z,979.62
2018-12-10T10:59:43.751Z,979.56
2018-12-10T11:00:43.736Z,979.55
2018-12-10T11:01:43.723Z,979.56
2018-12-10T11:02:43.711Z,979.49
2018-12-10T11:03:43.697Z,979.48
2018-12-10T11:04:43.685Z,979.48
2018-12-10T11:05:43.673Z,979.44
2018-12-10T11:06:43.661Z,979.46
2018-12-10T11:07:43.647Z,979.50
2018-12-10T11:08:43.637Z,979.55
2018-12-10T11:09:43.624Z,979.50
2018-12-10T11:10:43.612Z,979.45
2018-12-10T11:11:43.597Z,979.49
2018-12-10T11:12:43.587Z,979.48
2018-12-10T11:13:43.573Z,979.48
2018-12-10T11:14:43.560Z,979.43
2018-12-10T11:15:43.548Z,979.48
2018-12-10T11:16:43.536Z,979.52
2018-12-10T11:17:43.522Z,979.45
2018-12-10T11:18:43.534Z,979.46
2018-12-10T11:19:43.497Z,979.40
2018-12-10T11:20:43.484Z,979.37
2018-12-10T11:21:43.472Z,979.38
2018-12-10T11:22:43.460Z,979.39
2018-12-10T11:23:43.447Z,979.42
2018-12-10T11:24:43.433Z,979.43
2018-12-10T11:25:43.422Z,979.40
2018-12-10T11:26:43.542Z,979.40
2018-12-10T11:27:43.396Z,979.37
2018-12-10T11:28:43.385Z,979.32
2018-12-10T11:29:43.373Z,979.33
2018-12-10T11:30:43.360Z,979.35
2018-12-10T11:31:43.347Z,979.41
2018-12-10T11:32:43.335Z,979.35
2018-12-10T11:33:43.324Z,979.40
2018-12-10T11:34:43.310Z,979.39
2018-12-10T11:35:43.297Z,979.33
2018-12-10T11:36:43.284Z,979.35
2018-12-10T11:37:43.272Z,979.32
2018-12-10T11:38:43.369Z,979.41
2018-12-10T11:39:43.359Z,979.41
2018-12-10T11:40:43.234Z,979.46
2018-12-10T11:41:43.223Z,979.43
2018-12-10T11:42:43.210Z,979.45
2018-12-10T11:43:43.206Z,979.49
2018-12-10T11:44:43.185Z,979.50
2018-12-10T11:45:43.172Z,979.46
2018-12-10T11:46:43.162Z,979.44
2018-12-10T11:47:43.148Z,979.37
2018-12-10T11:48:43.135Z,979.42
2018-12-10T11:49:43.122Z,979.39
2018-12-10T11:50:43.114Z,979.40
2018-12-10T11:51:43.101Z,979.40
2018-12-10T11:52:43.086Z,979.34
2018-12-10T11:53:43.076Z,979.34
2018-12-10T11:54:43.061Z,979.36
2018-12-10T11:55:43.049Z,979.29
2018-12-10T11:56:43.037Z,979.26
2018-12-10T11:57:43.023Z,979.27
2018-12-10T11:58:43.018Z,979.14
2018-12-10T11:59:42.998Z,979.09
2018-12-10T12:00:42.988Z,979.13
2018-12-10T12:01:42.975Z,979.08
2018-12-10T12:02:42.962Z,979.07
2018-12-10T12:03:42.950Z,979.09
2018-12-10T12:04:42.935Z,979.00
2018-12-10T12:05:42.926Z,978.97
2018-12-10T12:06:42.913Z,978.98
2018-12-10T12:07:42.902Z,978.97
2018-12-10T12:08:42.888Z,979.00
2018-12-10T12:09:42.877Z,979.01
2018-12-10T12:10:42.863Z,979.06
2018-12-10T12:11:42.849Z,978.96
2018-12-10T12:12:42.838Z,979.13
2018-12-10T12:13:44.509Z,979.09
2018-12-10T12:14:42.811Z,979.12
2018-12-10T12:15:42.802Z,979.03
2018-12-10T12:16:42.788Z,979.05
2018-12-10T12:17:42.773Z,978.98
2018-12-10T12:18:42.762Z,979.08
2018-12-10T12:19:42.749Z,979.10
2018-12-10T12:20:42.735Z,979.11
2018-12-10T12:21:42.722Z,979.07
2018-12-10T12:22:42.710Z,979.09
2018-12-10T12:23:42.698Z,979.08
2018-12-10T12:24:42.684Z,979.10
2018-12-10T12:25:42.673Z,979.06
2018-12-10T12:26:42.658Z,979.06
2018-12-10T12:27:42.647Z,979.04
2018-12-10T12:28:42.640Z,979.03